sensor_id;sensor_type;location;lat;lon;timestamp;pressure;altitude;pressure_sealevel;temperature;humidity
65329;BME280;51941;52.210;5.158;2023-02-17T00:01:23;101826.59;;;10.72;100.00
65329;BME280;51941;52.210;5.158;2023-02-17T00:03:51;101802.41;;;10.35;100.00
65329;BME280;51941;52.210;5.158;2023-02-17T00:06:19;101829.44;;;10.63;100.00
65329;BME280;51941;52.210;5.158;2023-02-17T00:08:47;101822.75;;;10.67;100.00
65329;BME280;51941;52.210;5.158;2023-02-17T00:11:16;101819.44;;;10.72;100.00
65329;BME280;51941;52.210;5.158;2023-02-17T00:13:44;101826.38;;;10.73;99.72
65329;BME280;51941;52.210;5.158;2023-02-17T00:16:15;101822.75;;;10.67;99.93
65329;BME280;51941;52.210;5.158;2023-02-17T00:18:42;101830.06;;;10.65;99.99
65329;BME280;51941;52.210;5.158;2023-02-17T00:21:11;101829.06;;;10.66;99.83
65329;BME280;51941;52.210;5.158;2023-02-17T00:23:38;101822.94;;;10.66;100.00
65329;BME280;51941;52.210;5.158;2023-02-17T00:26:05;101781.03;;;10.37;100.00
65329;BME280;51941;52.210;5.158;2023-02-17T00:28:34;101823.56;;;10.68;100.00
65329;BME280;51941;52.210;5.158;2023-02-17T00:31:05;101817.66;;;10.66;100.00
65329;BME280;51941;52.210;5.158;2023-02-17T00:33:32;101821.31;;;10.65;100.00
65329;BME280;51941;52.210;5.158;2023-02-17T00:36:02;101812.78;;;10.56;100.00
65329;BME280;51941;52.210;5.158;2023-02-17T00:38:29;101815.63;;;10.55;100.00
65329;BME280;51941;52.210;5.158;2023-02-17T00:40:55;101813.16;;;10.53;100.00
65329;BME280;51941;52.210;5.158;2023-02-17T00:43:22;101820.69;;;10.63;100.00
65329;BME280;51941;52.210;5.158;2023-02-17T00:45:50;101820.91;;;10.61;100.00
65329;BME280;51941;52.210;5.158;2023-02-17T00:48:19;101792.84;;;10.47;100.00
65329;BME280;51941;52.210;5.158;2023-02-17T00:50:46;101808.28;;;10.63;100.00
65329;BME280;51941;52.210;5.158;2023-02-17T00:53:13;101804.84;;;10.56;100.00
65329;BME280;51941;52.210;5.158;2023-02-17T00:55:41;101810.91;;;10.63;99.99
65329;BME280;51941;52.210;5.158;2023-02-17T00:58:08;101800.75;;;10.67;99.73
65329;BME280;51941;52.210;5.158;2023-02-17T01:00:35;101805.81;;;10.62;99.86
65329;BME280;51941;52.210;5.158;2023-02-17T01:03:03;101802.16;;;10.63;99.94
65329;BME280;51941;52.210;5.158;2023-02-17T01:05:30;101802.59;;;10.60;99.80
65329;BME280;51941;52.210;5.158;2023-02-17T01:07:57;101786.09;;;10.45;99.65
65329;BME280;51941;52.210;5.158;2023-02-17T01:10:26;101808.09;;;10.58;99.66
65329;BME280;51941;52.210;5.158;2023-02-17T01:12:52;101790.59;;;10.38;99.79
65329;BME280;51941;52.210;5.158;2023-02-17T01:15:20;101814.00;;;10.47;99.81
65329;BME280;51941;52.210;5.158;2023-02-17T01:17:48;101821.97;;;10.41;100.00
65329;BME280;51941;52.210;5.158;2023-02-17T01:20:16;101816.25;;;10.44;100.00
65329;BME280;51941;52.210;5.158;2023-02-17T01:22:43;101803.03;;;10.30;100.00
65329;BME280;51941;52.210;5.158;2023-02-17T01:25:10;101815.63;;;10.35;100.00
65329;BME280;51941;52.210;5.158;2023-02-17T01:27:37;101812.78;;;10.37;100.00
65329;BME280;51941;52.210;5.158;2023-02-17T01:30:05;101821.56;;;10.24;100.00
65329;BME280;51941;52.210;5.158;2023-02-17T01:32:32;101818.91;;;10.30;100.00
65329;BME280;51941;52.210;5.158;2023-02-17T01:34:59;101816.66;;;10.27;100.00
65329;BME280;51941;52.210;5.158;2023-02-17T01:37:27;101811.38;;;10.27;100.00
65329;BME280;51941;52.210;5.158;2023-02-17T01:39:53;101809.53;;;10.28;100.00
65329;BME280;51941;52.210;5.158;2023-02-17T01:42:20;101802.84;;;10.32;99.89
65329;BME280;51941;52.210;5.158;2023-02-17T01:47:54;101807.31;;;10.25;99.80
65329;BME280;51941;52.210;5.158;2023-02-17T01:50:25;101801.81;;;10.26;99.78
65329;BME280;51941;52.210;5.158;2023-02-17T01:52:57;101806.72;;;10.23;99.74
65329;BME280;51941;52.210;5.158;2023-02-17T01:55:26;101804.06;;;10.16;99.74
65329;BME280;51941;52.210;5.158;2023-02-17T01:57:55;101805.88;;;10.09;100.00
65329;BME280;51941;52.210;5.158;2023-02-17T02:00:25;101807.94;;;10.14;100.00
65329;BME280;51941;52.210;5.158;2023-02-17T02:02:54;101789.00;;;10.17;100.00
65329;BME280;51941;52.210;5.158;2023-02-17T02:05:22;101779.63;;;10.21;100.00
65329;BME280;51941;52.210;5.158;2023-02-17T02:07:49;101781.06;;;10.23;100.00
65329;BME280;51941;52.210;5.158;2023-02-17T02:10:18;101772.69;;;10.26;99.65
65329;BME280;51941;52.210;5.158;2023-02-17T02:12:45;101765.19;;;10.23;99.73
65329;BME280;51941;52.210;5.158;2023-02-17T02:15:15;101754.41;;;10.25;99.68
65329;BME280;51941;52.210;5.158;2023-02-17T02:17:55;101756.63;;;10.21;99.51
65329;BME280;51941;52.210;5.158;2023-02-17T02:23:50;101754.81;;;10.02;99.89
65329;BME280;51941;52.210;5.158;2023-02-17T02:26:41;101746.47;;;10.05;99.96
65329;BME280;51941;52.210;5.158;2023-02-17T02:29:41;101760.50;;;10.12;99.60
65329;BME280;51941;52.210;5.158;2023-02-17T02:32:40;101742.81;;;10.13;99.40
65329;BME280;51941;52.210;5.158;2023-02-17T02:35:12;101742.81;;;10.13;99.42
65329;BME280;51941;52.210;5.158;2023-02-17T02:37:45;101746.47;;;10.05;99.46
65329;BME280;51941;52.210;5.158;2023-02-17T02:40:16;101738.72;;;10.10;99.42
65329;BME280;51941;52.210;5.158;2023-02-17T02:42:45;101748.09;;;10.06;99.31
65329;BME280;51941;52.210;5.158;2023-02-17T02:45:12;101748.50;;;10.03;99.40
65329;BME280;51941;52.210;5.158;2023-02-17T02:47:46;101741.38;;;10.04;99.17
65329;BME280;51941;52.210;5.158;2023-02-17T02:50:19;101713.53;;;9.81;99.13
65329;BME280;51941;52.210;5.158;2023-02-17T02:52:59;101736.09;;;10.04;99.28
65329;BME280;51941;52.210;5.158;2023-02-17T02:55:42;101734.88;;;10.06;98.88
65329;BME280;51941;52.210;5.158;2023-02-17T02:58:17;101725.72;;;10.02;98.98
65329;BME280;51941;52.210;5.158;2023-02-17T03:00:52;101734.47;;;10.03;99.07
65329;BME280;51941;52.210;5.158;2023-02-17T03:03:28;101746.06;;;10.02;98.85
65329;BME280;51941;52.210;5.158;2023-02-17T03:06:05;101734.09;;;9.99;98.91
65329;BME280;51941;52.210;5.158;2023-02-17T03:08:37;101733.03;;;10.00;98.94
65329;BME280;51941;52.210;5.158;2023-02-17T03:11:05;101727.13;;;9.91;98.76
65329;BME280;51941;52.210;5.158;2023-02-17T03:13:35;101694.44;;;9.73;98.83
65329;BME280;51941;52.210;5.158;2023-02-17T03:16:07;101716.59;;;9.98;98.53
65329;BME280;51941;52.210;5.158;2023-02-17T03:18:37;101709.88;;;9.96;98.49
65329;BME280;51941;52.210;5.158;2023-02-17T03:21:09;101718.59;;;9.96;98.42
65329;BME280;51941;52.210;5.158;2023-02-17T03:23:38;101713.91;;;9.91;98.42
65329;BME280;51941;52.210;5.158;2023-02-17T03:26:05;101656.19;;;9.69;98.40
65329;BME280;51941;52.210;5.158;2023-02-17T03:28:32;101677.31;;;9.95;98.55
65329;BME280;51941;52.210;5.158;2023-02-17T03:30:58;101689.13;;;9.99;98.36
65329;BME280;51941;52.210;5.158;2023-02-17T03:33:25;101680.75;;;10.02;98.08
65329;BME280;51941;52.210;5.158;2023-02-17T03:35:53;101675.69;;;10.07;97.76
65329;BME280;51941;52.210;5.158;2023-02-17T03:38:20;101672.84;;;9.96;98.02
65329;BME280;51941;52.210;5.158;2023-02-17T03:40:47;101684.63;;;9.93;98.51
65329;BME280;51941;52.210;5.158;2023-02-17T03:43:15;101677.72;;;9.92;98.77
65329;BME280;51941;52.210;5.158;2023-02-17T03:45:41;101680.78;;;9.96;98.66
65329;BME280;51941;52.210;5.158;2023-02-17T03:48:08;101683.00;;;9.99;98.81
65329;BME280;51941;52.210;5.158;2023-02-17T03:50:35;101678.31;;;9.94;99.18
65329;BME280;51941;52.210;5.158;2023-02-17T03:53:03;101688.06;;;10.00;98.95
65329;BME280;51941;52.210;5.158;2023-02-17T03:55:30;101675.06;;;10.05;98.86
65329;BME280;51941;52.210;5.158;2023-02-17T03:57:57;101670.38;;;10.01;98.78
65329;BME280;51941;52.210;5.158;2023-02-17T04:00:24;101668.53;;;10.01;99.07
65329;BME280;51941;52.210;5.158;2023-02-17T04:02:50;101680.75;;;10.02;99.13
65329;BME280;51941;52.210;5.158;2023-02-17T04:05:17;101658.00;;;9.75;99.90
65329;BME280;51941;52.210;5.158;2023-02-17T04:07:44;101677.09;;;9.97;100.00
65329;BME280;51941;52.210;5.158;2023-02-17T04:10:12;101678.75;;;9.98;100.00
65329;BME280;51941;52.210;5.158;2023-02-17T04:12:39;101677.50;;;10.00;100.00
65329;BME280;51941;52.210;5.158;2023-02-17T04:15:07;101682.81;;;9.93;100.00
65329;BME280;51941;52.210;5.158;2023-02-17T04:17:35;101658.44;;;9.72;100.00
65329;BME280;51941;52.210;5.158;2023-02-17T04:20:20;101696.84;;;9.94;100.00
65329;BME280;51941;52.210;5.158;2023-02-17T04:22:47;101698.28;;;9.97;100.00
65329;BME280;51941;52.210;5.158;2023-02-17T04:25:15;101694.78;;;10.03;100.00
65329;BME280;51941;52.210;5.158;2023-02-17T04:27:42;101681.78;;;10.08;100.00
65329;BME280;51941;52.210;5.158;2023-02-17T04:30:10;101686.66;;;10.04;100.00
65329;BME280;51941;52.210;5.158;2023-02-17T04:32:37;101673.84;;;10.08;100.00
65329;BME280;51941;52.210;5.158;2023-02-17T04:35:04;101667.94;;;10.06;100.00
65329;BME280;51941;52.210;5.158;2023-02-17T04:37:31;101672.19;;;10.13;100.00
65329;BME280;51941;52.210;5.158;2023-02-17T04:39:58;101683.19;;;10.10;100.00
65329;BME280;51941;52.210;5.158;2023-02-17T04:42:26;101667.50;;;10.09;100.00
65329;BME280;51941;52.210;5.158;2023-02-17T04:44:53;101660.00;;;10.06;100.00
65329;BME280;51941;52.210;5.158;2023-02-17T04:47:19;101649.41;;;10.12;100.00
65329;BME280;51941;52.210;5.158;2023-02-17T04:49:47;101658.75;;;10.15;100.00
65329;BME280;51941;52.210;5.158;2023-02-17T04:52:14;101659.97;;;10.12;100.00
65329;BME280;51941;52.210;5.158;2023-02-17T04:54:40;101666.09;;;10.06;100.00
65329;BME280;51941;52.210;5.158;2023-02-17T04:57:07;101661.19;;;10.10;100.00
65329;BME280;51941;52.210;5.158;2023-02-17T04:59:35;101665.69;;;10.16;100.00
65329;BME280;51941;52.210;5.158;2023-02-17T05:02:02;101664.44;;;10.18;100.00
65329;BME280;51941;52.210;5.158;2023-02-17T05:04:29;101668.47;;;10.27;100.00
65329;BME280;51941;52.210;5.158;2023-02-17T05:06:56;101688.66;;;10.22;100.00
65329;BME280;51941;52.210;5.158;2023-02-17T05:09:23;101689.44;;;10.29;100.00
65329;BME280;51941;52.210;5.158;2023-02-17T05:11:50;101681.72;;;10.34;100.00
65329;BME280;51941;52.210;5.158;2023-02-17T05:14:16;101679.06;;;10.27;100.00
65329;BME280;51941;52.210;5.158;2023-02-17T05:16:45;101665.47;;;10.24;100.00
65329;BME280;51941;52.210;5.158;2023-02-17T05:19:12;101657.50;;;10.30;100.00
65329;BME280;51941;52.210;5.158;2023-02-17T05:21:38;101675.84;;;10.25;100.00
65329;BME280;51941;52.210;5.158;2023-02-17T05:24:05;101662.78;;;10.30;100.00
65329;BME280;51941;52.210;5.158;2023-02-17T05:26:32;101684.78;;;10.24;100.00
65329;BME280;51941;52.210;5.158;2023-02-17T05:28:59;101681.75;;;10.21;100.00
65329;BME280;51941;52.210;5.158;2023-02-17T05:31:26;101660.53;;;10.27;100.00
65329;BME280;51941;52.210;5.158;2023-02-17T05:33:54;101664.25;;;10.13;100.00
65329;BME280;51941;52.210;5.158;2023-02-17T05:36:21;101654.69;;;10.12;100.00
65329;BME280;51941;52.210;5.158;2023-02-17T05:38:48;101670.53;;;10.19;100.00
65329;BME280;51941;52.210;5.158;2023-02-17T05:41:16;101659.56;;;10.22;100.00
65329;BME280;51941;52.210;5.158;2023-02-17T05:43:43;101660.34;;;10.29;100.00
65329;BME280;51941;52.210;5.158;2023-02-17T05:46:11;101655.25;;;10.27;100.00
65329;BME280;51941;52.210;5.158;2023-02-17T05:48:37;101638.56;;;10.27;100.00
65329;BME280;51941;52.210;5.158;2023-02-17T05:51:06;101630.72;;;10.07;100.00
65329;BME280;51941;52.210;5.158;2023-02-17T05:53:33;101644.16;;;9.99;100.00
65329;BME280;51941;52.210;5.158;2023-02-17T05:56:00;101632.34;;;9.95;100.00
65329;BME280;51941;52.210;5.158;2023-02-17T05:58:26;101635.19;;;10.00;100.00
65329;BME280;51941;52.210;5.158;2023-02-17T06:00:53;101581.97;;;9.64;100.00
65329;BME280;51941;52.210;5.158;2023-02-17T06:03:20;101644.09;;;10.12;100.00
65329;BME280;51941;52.210;5.158;2023-02-17T06:05:47;101642.22;;;10.26;100.00
65329;BME280;51941;52.210;5.158;2023-02-17T06:08:15;101648.13;;;10.28;100.00
65329;BME280;51941;52.210;5.158;2023-02-17T06:10:42;101637.94;;;10.31;100.00
65329;BME280;51941;52.210;5.158;2023-02-17T06:13:08;101647.31;;;10.34;100.00
65329;BME280;51941;52.210;5.158;2023-02-17T06:15:35;101653.78;;;10.38;100.00
65329;BME280;51941;52.210;5.158;2023-02-17T06:18:02;101648.72;;;10.43;100.00
65329;BME280;51941;52.210;5.158;2023-02-17T06:20:29;101633.41;;;10.45;100.00
65329;BME280;51941;52.210;5.158;2023-02-17T06:22:56;101629.38;;;10.36;100.00
65329;BME280;51941;52.210;5.158;2023-02-17T06:25:24;101621.03;;;10.39;100.00
65329;BME280;51941;52.210;5.158;2023-02-17T06:27:51;101626.47;;;10.44;100.00
65329;BME280;51941;52.210;5.158;2023-02-17T06:30:18;101598.69;;;10.22;100.00
65329;BME280;51941;52.210;5.158;2023-02-17T06:32:46;101622.81;;;10.52;100.00
65329;BME280;51941;52.210;5.158;2023-02-17T06:35:13;101614.25;;;10.50;100.00
65329;BME280;51941;52.210;5.158;2023-02-17T06:37:39;101609.75;;;10.57;100.00
65329;BME280;51941;52.210;5.158;2023-02-17T06:40:07;101605.44;;;10.62;100.00
65329;BME280;51941;52.210;5.158;2023-02-17T06:42:35;101615.03;;;10.57;100.00
65329;BME280;51941;52.210;5.158;2023-02-17T06:45:02;101607.91;;;10.57;100.00
65329;BME280;51941;52.210;5.158;2023-02-17T06:47:30;101608.28;;;10.61;100.00
65329;BME280;51941;52.210;5.158;2023-02-17T06:49:57;101585.31;;;10.55;100.00
65329;BME280;51941;52.210;5.158;2023-02-17T06:52:24;101609.50;;;10.65;100.00
65329;BME280;51941;52.210;5.158;2023-02-17T06:54:51;101608.47;;;10.66;100.00
65329;BME280;51941;52.210;5.158;2023-02-17T06:57:18;101608.47;;;10.66;100.00
65329;BME280;51941;52.210;5.158;2023-02-17T06:59:46;101595.44;;;10.64;100.00
65329;BME280;51941;52.210;5.158;2023-02-17T07:02:13;101598.09;;;10.64;100.00
65329;BME280;51941;52.210;5.158;2023-02-17T07:04:41;101605.63;;;10.67;100.00
65329;BME280;51941;52.210;5.158;2023-02-17T07:07:08;101616.81;;;10.69;100.00
65329;BME280;51941;52.210;5.158;2023-02-17T07:09:36;101583.66;;;10.60;100.00
65329;BME280;51941;52.210;5.158;2023-02-17T07:12:04;101630.25;;;10.68;100.00
65329;BME280;51941;52.210;5.158;2023-02-17T07:14:31;101635.75;;;10.66;100.00
65329;BME280;51941;52.210;5.158;2023-02-17T07:17:00;101625.41;;;10.58;100.00
65329;BME280;51941;52.210;5.158;2023-02-17T07:19:27;101617.97;;;10.42;100.00
65329;BME280;51941;52.210;5.158;2023-02-17T07:21:54;101606.94;;;10.52;100.00
65329;BME280;51941;52.210;5.158;2023-02-17T07:24:21;101632.47;;;10.71;100.00
65329;BME280;51941;52.210;5.158;2023-02-17T07:26:48;101621.06;;;10.70;100.00
65329;BME280;51941;52.210;5.158;2023-02-17T07:29:15;101617.41;;;10.72;100.00
65329;BME280;51941;52.210;5.158;2023-02-17T07:31:41;101609.69;;;10.63;100.00
65329;BME280;51941;52.210;5.158;2023-02-17T07:34:10;101614.75;;;10.72;100.00
65329;BME280;51941;52.210;5.158;2023-02-17T07:36:36;101620.44;;;10.82;100.00
65329;BME280;51941;52.210;5.158;2023-02-17T07:39:04;101618.78;;;10.87;100.00
65329;BME280;51941;52.210;5.158;2023-02-17T07:41:31;101622.47;;;10.86;100.00
65329;BME280;51941;52.210;5.158;2023-02-17T07:44:06;101622.63;;;10.91;100.00
65329;BME280;51941;52.210;5.158;2023-02-17T07:46:34;101619.41;;;10.83;100.00
65329;BME280;51941;52.210;5.158;2023-02-17T07:49:01;101620.00;;;10.85;100.00
65329;BME280;51941;52.210;5.158;2023-02-17T07:51:29;101524.78;;;10.34;100.00
65329;BME280;51941;52.210;5.158;2023-02-17T07:53:56;101612.06;;;10.85;100.00
65329;BME280;51941;52.210;5.158;2023-02-17T07:56:23;101623.03;;;10.88;100.00
65329;BME280;51941;52.210;5.158;2023-02-17T07:58:51;101629.75;;;10.91;100.00
65329;BME280;51941;52.210;5.158;2023-02-17T08:01:19;101630.00;;;10.83;100.00
65329;BME280;51941;52.210;5.158;2023-02-17T08:03:47;101607.84;;;10.77;100.00
65329;BME280;51941;52.210;5.158;2023-02-17T08:06:16;101646.59;;;11.03;100.00
65329;BME280;51941;52.210;5.158;2023-02-17T08:08:45;101633.13;;;11.04;100.00
65329;BME280;51941;52.210;5.158;2023-02-17T08:11:29;101631.53;;;10.97;100.00
65329;BME280;51941;52.210;5.158;2023-02-17T08:14:14;101638.31;;;10.93;100.00
65329;BME280;51941;52.210;5.158;2023-02-17T08:16:41;101643.94;;;11.03;100.00
65329;BME280;51941;52.210;5.158;2023-02-17T08:19:08;101600.28;;;10.74;100.00
65329;BME280;51941;52.210;5.158;2023-02-17T08:21:35;101623.94;;;10.69;100.00
65329;BME280;51941;52.210;5.158;2023-02-17T08:24:04;101678.25;;;10.91;100.00
65329;BME280;51941;52.210;5.158;2023-02-17T08:26:31;101689.94;;;10.77;100.00
65329;BME280;51941;52.210;5.158;2023-02-17T08:28:57;101664.03;;;10.73;100.00
65329;BME280;51941;52.210;5.158;2023-02-17T08:31:27;101660.38;;;10.74;100.00
65329;BME280;51941;52.210;5.158;2023-02-17T08:33:54;101668.13;;;10.75;100.00
65329;BME280;51941;52.210;5.158;2023-02-17T08:36:22;101661.63;;;10.78;100.00
65329;BME280;51941;52.210;5.158;2023-02-17T08:38:50;101674.25;;;10.76;100.00
65329;BME280;51941;52.210;5.158;2023-02-17T08:41:21;101677.06;;;10.74;100.00
65329;BME280;51941;52.210;5.158;2023-02-17T08:43:49;101647.41;;;10.59;100.00
65329;BME280;51941;52.210;5.158;2023-02-17T08:46:17;101684.19;;;10.80;100.00
65329;BME280;51941;52.210;5.158;2023-02-17T08:48:44;101647.25;;;10.47;100.00
65329;BME280;51941;52.210;5.158;2023-02-17T08:51:12;101686.88;;;10.67;100.00
65329;BME280;51941;52.210;5.158;2023-02-17T08:53:39;101672.63;;;10.75;100.00
65329;BME280;51941;52.210;5.158;2023-02-17T08:56:06;101635.22;;;10.51;100.00
65329;BME280;51941;52.210;5.158;2023-02-17T08:58:34;101653.69;;;10.64;100.00
65329;BME280;51941;52.210;5.158;2023-02-17T09:01:02;101690.50;;;10.73;100.00
65329;BME280;51941;52.210;5.158;2023-02-17T09:03:29;101662.28;;;10.60;100.00
65329;BME280;51941;52.210;5.158;2023-02-17T09:05:57;101682.81;;;10.78;100.00
65329;BME280;51941;52.210;5.158;2023-02-17T09:08:24;101681.97;;;10.70;100.00
65329;BME280;51941;52.210;5.158;2023-02-17T09:10:51;101677.72;;;10.76;100.00
65329;BME280;51941;52.210;5.158;2023-02-17T09:13:18;101671.59;;;10.76;100.00
65329;BME280;51941;52.210;5.158;2023-02-17T09:15:46;101679.50;;;10.82;100.00
65329;BME280;51941;52.210;5.158;2023-02-17T09:18:13;101686.03;;;10.86;100.00
65329;BME280;51941;52.210;5.158;2023-02-17T09:20:41;101679.44;;;10.95;100.00
65329;BME280;51941;52.210;5.158;2023-02-17T09:23:08;101677.56;;;11.02;100.00
65329;BME280;51941;52.210;5.158;2023-02-17T09:25:34;101664.94;;;11.04;100.00
65329;BME280;51941;52.210;5.158;2023-02-17T09:28:01;101667.91;;;11.15;100.00
65329;BME280;51941;52.210;5.158;2023-02-17T09:30:28;101677.56;;;11.02;100.00
65329;BME280;51941;52.210;5.158;2023-02-17T09:32:56;101676.28;;;11.12;100.00
65329;BME280;51941;52.210;5.158;2023-02-17T09:35:24;101672.63;;;11.06;100.00
65329;BME280;51941;52.210;5.158;2023-02-17T09:37:51;101674.56;;;11.24;100.00
65329;BME280;51941;52.210;5.158;2023-02-17T09:40:20;101652.56;;;11.23;100.00
65329;BME280;51941;52.210;5.158;2023-02-17T09:42:48;101658.91;;;11.47;99.94
65329;BME280;51941;52.210;5.158;2023-02-17T09:45:20;101662.25;;;11.61;99.24
65329;BME280;51941;52.210;5.158;2023-02-17T09:47:51;101651.66;;;11.61;98.41
65329;BME280;51941;52.210;5.158;2023-02-17T09:50:22;101652.25;;;11.63;97.91
65329;BME280;51941;52.210;5.158;2023-02-17T09:52:55;101639.13;;;11.68;97.75
65329;BME280;51941;52.210;5.158;2023-02-17T09:55:27;101645.84;;;11.70;97.06
65329;BME280;51941;52.210;5.158;2023-02-17T09:57:57;101655.31;;;11.85;97.07
65329;BME280;51941;52.210;5.158;2023-02-17T10:00:31;101656.72;;;11.87;96.50
65329;BME280;51941;52.210;5.158;2023-02-17T10:03:03;101656.50;;;11.89;96.26
65329;BME280;51941;52.210;5.158;2023-02-17T10:05:35;101670.56;;;11.89;95.81
65329;BME280;51941;52.210;5.158;2023-02-17T10:08:07;101674.84;;;11.90;95.67
65329;BME280;51941;52.210;5.158;2023-02-17T10:10:40;101673.03;;;11.91;95.50
65329;BME280;51941;52.210;5.158;2023-02-17T10:13:08;101667.53;;;11.86;95.38
65329;BME280;51941;52.210;5.158;2023-02-17T10:15:39;101687.88;;;11.73;95.35
65329;BME280;51941;52.210;5.158;2023-02-17T10:18:11;101675.31;;;11.62;95.54
65329;BME280;51941;52.210;5.158;2023-02-17T10:20:45;101700.03;;;11.81;95.84
65329;BME280;51941;52.210;5.158;2023-02-17T10:23:16;101695.97;;;11.78;95.40
65329;BME280;51941;52.210;5.158;2023-02-17T10:25:54;101698.00;;;11.83;95.37
65329;BME280;51941;52.210;5.158;2023-02-17T10:28:48;101676.72;;;11.65;95.42
65329;BME280;51941;52.210;5.158;2023-02-17T10:31:22;101689.78;;;11.66;95.79
65329;BME280;51941;52.210;5.158;2023-02-17T10:33:57;101683.88;;;11.64;95.87
65329;BME280;51941;52.210;5.158;2023-02-17T10:36:33;101691.00;;;11.64;96.37
65329;BME280;51941;52.210;5.158;2023-02-17T10:39:11;101693.47;;;11.59;96.68
65329;BME280;51941;52.210;5.158;2023-02-17T10:41:40;101697.53;;;11.61;96.81
65329;BME280;51941;52.210;5.158;2023-02-17T10:44:11;101698.50;;;11.67;96.78
65329;BME280;51941;52.210;5.158;2023-02-17T10:46:42;101686.41;;;11.53;96.74
65329;BME280;51941;52.210;5.158;2023-02-17T10:49:21;101688.81;;;11.79;96.32
65329;BME280;51941;52.210;5.158;2023-02-17T10:51:50;101699.00;;;11.82;95.82
65329;BME280;51941;52.210;5.158;2023-02-17T10:54:24;101694.72;;;11.81;96.10
65329;BME280;51941;52.210;5.158;2023-02-17T10:56:53;101678.97;;;11.61;95.60
65329;BME280;51941;52.210;5.158;2023-02-17T10:59:26;101738.19;;;11.80;95.85
65329;BME280;51941;52.210;5.158;2023-02-17T11:01:55;101724.13;;;11.79;95.88
65329;BME280;51941;52.210;5.158;2023-02-17T11:04:23;101717.53;;;11.89;95.65
65329;BME280;51941;52.210;5.158;2023-02-17T11:06:53;101725.41;;;11.95;95.10
65329;BME280;51941;52.210;5.158;2023-02-17T11:09:21;101661.38;;;11.42;95.18
65329;BME280;51941;52.210;5.158;2023-02-17T11:11:58;101734.06;;;11.84;95.10
65329;BME280;51941;52.210;5.158;2023-02-17T11:14:28;101707.50;;;11.91;94.95
65329;BME280;51941;52.210;5.158;2023-02-17T11:16:56;101725.19;;;11.97;94.76
65329;BME280;51941;52.210;5.158;2023-02-17T11:19:27;101713.16;;;11.94;94.87
65329;BME280;51941;52.210;5.158;2023-02-17T11:21:56;101744.66;;;11.91;94.61
65329;BME280;51941;52.210;5.158;2023-02-17T11:24:24;101757.94;;;11.84;94.77
65329;BME280;51941;52.210;5.158;2023-02-17T11:26:56;101757.78;;;11.79;94.57
65329;BME280;51941;52.210;5.158;2023-02-17T11:29:23;101744.19;;;11.94;94.72
65329;BME280;51941;52.210;5.158;2023-02-17T11:31:55;101748.47;;;11.95;94.44
65329;BME280;51941;52.210;5.158;2023-02-17T11:34:26;101757.16;;;11.84;94.35
65329;BME280;51941;52.210;5.158;2023-02-17T11:37:00;101775.72;;;11.84;94.57
65329;BME280;51941;52.210;5.158;2023-02-17T11:39:27;101765.47;;;11.87;94.17
65329;BME280;51941;52.210;5.158;2023-02-17T11:41:54;101773.16;;;11.95;94.16
65329;BME280;51941;52.210;5.158;2023-02-17T11:44:23;101776.50;;;11.91;94.04
65329;BME280;51941;52.210;5.158;2023-02-17T11:46:57;101774.59;;;11.98;94.00
65329;BME280;51941;52.210;5.158;2023-02-17T11:49:43;101771.34;;;11.96;93.80
65329;BME280;51941;52.210;5.158;2023-02-17T11:52:27;101781.19;;;11.89;93.76
65329;BME280;51941;52.210;5.158;2023-02-17T11:55:12;101783.09;;;11.81;93.74
65329;BME280;51941;52.210;5.158;2023-02-17T11:57:44;101786.75;;;11.80;93.98
65329;BME280;51941;52.210;5.158;2023-02-17T12:00:18;101778.19;;;11.78;93.89
65329;BME280;51941;52.210;5.158;2023-02-17T12:03:03;101773.31;;;11.75;93.61
65329;BME280;51941;52.210;5.158;2023-02-17T12:05:47;101766.91;;;11.58;94.04
65329;BME280;51941;52.210;5.158;2023-02-17T12:08:19;101789.13;;;11.64;94.43
65329;BME280;51941;52.210;5.158;2023-02-17T12:11:00;101787.50;;;11.63;94.15
65329;BME280;51941;52.210;5.158;2023-02-17T12:13:40;101795.50;;;11.56;94.67
65329;BME280;51941;52.210;5.158;2023-02-17T12:16:17;101810.25;;;11.46;95.02
65329;BME280;51941;52.210;5.158;2023-02-17T12:18:58;101797.66;;;11.34;95.24
65329;BME280;51941;52.210;5.158;2023-02-17T12:21:37;101801.16;;;11.28;95.70
65329;BME280;51941;52.210;5.158;2023-02-17T12:24:20;101805.66;;;11.28;96.19
65329;BME280;51941;52.210;5.158;2023-02-17T12:26:54;101808.09;;;11.29;96.26
65329;BME280;51941;52.210;5.158;2023-02-17T12:29:34;101763.97;;;11.03;96.04
65329;BME280;51941;52.210;5.158;2023-02-17T12:32:19;101803.16;;;11.33;95.88
65329;BME280;51941;52.210;5.158;2023-02-17T12:34:54;101800.50;;;11.39;95.73
65329;BME280;51941;52.210;5.158;2023-02-17T12:37:28;101794.38;;;11.39;95.62
65329;BME280;51941;52.210;5.158;2023-02-17T12:40:03;101807.19;;;11.49;95.67
65329;BME280;51941;52.210;5.158;2023-02-17T12:42:35;101763.97;;;11.03;96.07
65329;BME280;51941;52.210;5.158;2023-02-17T12:45:05;101821.06;;;11.44;96.11
65329;BME280;51941;52.210;5.158;2023-02-17T12:47:37;101815.03;;;11.24;97.17
65329;BME280;51941;52.210;5.158;2023-02-17T12:50:10;101821.34;;;11.29;97.77
65329;BME280;51941;52.210;5.158;2023-02-17T12:52:43;101838.47;;;11.27;98.44
65329;BME280;51941;52.210;5.158;2023-02-17T12:55:16;101817.28;;;11.27;98.72
65329;BME280;51941;52.210;5.158;2023-02-17T12:57:48;101813.50;;;11.41;98.52
65329;BME280;51941;52.210;5.158;2023-02-17T13:00:21;101797.84;;;11.33;98.26
65329;BME280;51941;52.210;5.158;2023-02-17T13:02:49;101813.88;;;11.51;97.75
65329;BME280;51941;52.210;5.158;2023-02-17T13:05:21;101805.56;;;11.48;97.16